createdAt,value
2022-07-31T20:08:16.984Z,2.05
2022-07-31T20:10:18.916Z,1.90
2022-07-31T20:12:21.066Z,3.03
2022-07-31T20:14:22.920Z,1.92
2022-07-31T20:16:25.221Z,2.25
2022-07-31T20:18:28.859Z,2.03
2022-07-31T20:20:31.491Z,2.25
2022-07-31T20:22:33.374Z,2.13
2022-07-31T20:24:35.252Z,2.45
2022-07-31T20:26:37.558Z,2.22
2022-07-31T20:28:44.040Z,2.15
2022-07-31T20:30:46.192Z,2.55
2022-07-31T20:32:48.881Z,2.03
2022-07-31T20:34:50.805Z,2.20
2022-07-31T20:36:55.707Z,1.77
2022-07-31T20:38:58.928Z,2.00
2022-07-31T20:41:00.993Z,1.80
2022-07-31T20:43:05.563Z,1.70
2022-07-31T20:45:08.242Z,2.20
2022-07-31T20:47:10.165Z,1.20
2022-07-31T20:49:27.215Z,1.25
2022-07-31T20:51:35.033Z,1.23
2022-07-31T20:53:36.896Z,1.10
2022-07-31T20:55:38.812Z,1.08
2022-07-31T20:57:40.925Z,0.88
2022-07-31T20:59:42.962Z,1.75
2022-07-31T21:01:44.948Z,1.17
2022-07-31T21:03:47.765Z,1.10
2022-07-31T21:05:49.748Z,1.20
2022-07-31T21:07:51.725Z,0.88
2022-07-31T21:09:53.624Z,1.20
2022-07-31T21:11:55.475Z,1.00
2022-07-31T21:13:57.322Z,1.58
2022-07-31T21:15:59.211Z,1.13
2022-07-31T21:18:01.065Z,0.90
2022-07-31T21:20:08.440Z,0.70
2022-07-31T21:22:10.409Z,1.13
2022-07-31T21:24:12.388Z,0.90
2022-07-31T21:26:15.018Z,0.95
2022-07-31T21:28:17.051Z,0.95
2022-07-31T21:30:19.199Z,0.90
2022-07-31T21:32:21.266Z,1.00
2022-07-31T21:34:23.544Z,0.80
2022-07-31T21:36:25.947Z,0.90
2022-07-31T21:38:28.041Z,1.00
2022-07-31T21:40:30.689Z,0.90
2022-07-31T21:42:32.838Z,0.88
2022-07-31T21:44:39.538Z,1.02
